Time,TemperatureF,DewpointF,PressureIn,WindDirection,WindDirectionDegrees,WindSpeedMPH,WindSpeedGustMPH,Humidity,HourlyPrecipIn,Conditions,Clouds,dailyrainin,SoftwareType,DateUTC
2014-12-17 00:00:00,60.2,53.7,30.22,WNW,283,0.0,2.0,79,0.00,,,0.00,Wunderground v.1.15,2014-12-17 05:00:00,
2014-12-17 00:05:00,60.0,53.5,30.22,WNW,283,0.0,2.0,79,0.00,,,0.00,Wunderground v.1.15,2014-12-17 05:05:00,
2014-12-17 00:15:00,60.1,53.6,30.22,WNW,283,0.0,0.0,79,0.00,,,0.00,Wunderground v.1.15,2014-12-17 05:15:00,
2014-12-17 00:20:00,60.1,53.6,30.22,WNW,283,0.0,0.0,79,0.00,,,0.00,Wunderground v.1.15,2014-12-17 05:20:00,
2014-12-17 00:25:00,60.1,53.6,30.22,WNW,283,0.0,1.0,79,0.00,,,0.00,Wunderground v.1.15,2014-12-17 05:25:00,
2014-12-17 00:30:00,60.4,53.9,30.22,WNW,295,1.0,2.0,79,0.00,,,0.00,Wunderground v.1.15,2014-12-17 05:30:00,
2014-12-17 00:35:00,60.5,54.0,30.22,NW,305,1.0,2.0,79,0.00,,,0.00,Wunderground v.1.15,2014-12-17 05:35:00,
2014-12-17 00:40:00,60.5,54.0,30.21,NW,309,1.0,1.0,79,0.00,,,0.00,Wunderground v.1.15,2014-12-17 05:40:00,
2014-12-17 00:50:00,60.3,53.8,30.21,NW,306,1.0,1.0,79,0.00,,,0.00,Wunderground v.1.15,2014-12-17 05:50:00,
2014-12-17 00:55:00,60.3,53.8,30.21,WNW,298,1.0,1.0,79,0.00,,,0.00,Wunderground v.1.15,2014-12-17 05:55:00,
2014-12-17 01:00:00,60.3,53.8,30.21,NW,310,1.0,1.0,79,0.00,,,0.00,Wunderground v.1.15,2014-12-17 06:00:00,
2014-12-17 01:05:00,60.2,53.7,30.21,WNW,301,1.0,2.0,79,0.00,,,0.00,Wunderground v.1.15,2014-12-17 06:05:00,
2014-12-17 01:15:00,60.1,53.6,30.20,WNW,302,0.0,1.0,79,0.00,,,0.00,Wunderground v.1.15,2014-12-17 06:15:00,
2014-12-17 01:20:00,60.0,53.5,30.20,North,349,0.0,0.0,79,0.00,,,0.00,Wunderground v.1.15,2014-12-17 06:20:00,
2014-12-17 01:25:00,59.9,53.4,30.20,NNW,347,0.0,0.0,79,0.00,,,0.00,Wunderground v.1.15,2014-12-17 06:25:00,
2014-12-17 01:30:00,59.9,53.4,30.20,NNW,345,1.0,1.0,79,0.00,,,0.00,Wunderground v.1.15,2014-12-17 06:30:00,
2014-12-17 01:35:00,59.8,53.3,30.20,NW,321,1.0,3.0,79,0.00,,,0.00,Wunderground v.1.15,2014-12-17 06:35:00,
2014-12-17 01:40:00,59.7,53.2,30.20,North,1,1.0,1.0,79,0.00,,,0.00,Wunderground v.1.15,2014-12-17 06:40:00,
2014-12-17 01:45:00,59.7,53.2,30.20,North,1,1.0,3.0,79,0.00,,,0.00,Wunderground v.1.15,2014-12-17 06:45:00,
2014-12-17 01:55:00,59.5,53.0,30.20,NW,319,1.0,3.0,79,0.00,,,0.00,Wunderground v.1.15,2014-12-17 06:55:00,
2014-12-17 02:00:00,59.4,52.9,30.19,NW,326,1.0,3.0,79,0.00,,,0.00,Wunderground v.1.15,2014-12-17 07:00:00,
2014-12-17 02:05:00,59.2,52.7,30.19,NW,325,0.0,3.0,79,0.00,,,0.00,Wunderground v.1.15,2014-12-17 07:05:00,
2014-12-17 02:15:00,59.0,52.1,30.19,NNW,345,0.0,0.0,78,0.00,,,0.00,Wunderground v.1.15,2014-12-17 07:15:00,
2014-12-17 02:25:00,59.2,52.3,30.19,NNE,24,1.0,3.0,78,0.00,,,0.00,Wunderground v.1.15,2014-12-17 07:25:00,
2014-12-17 02:30:00,59.2,52.7,30.19,North,349,1.0,1.0,79,0.00,,,0.00,Wunderground v.1.15,2014-12-17 07:30:00,
2014-12-17 02:35:00,59.2,52.7,30.19,NNW,335,1.0,3.0,79,0.00,,,0.00,Wunderground v.1.15,2014-12-17 07:35:00,
2014-12-17 02:40:00,59.1,52.6,30.19,North,359,1.0,3.0,79,0.00,,,0.00,Wunderground v.1.15,2014-12-17 07:40:00,
2014-12-17 02:45:00,59.2,52.7,30.19,North,359,1.0,3.0,79,0.00,,,0.00,Wunderground v.1.15,2014-12-17 07:45:00,
2014-12-17 02:50:00,59.3,52.8,30.19,NNE,21,2.0,2.0,79,0.00,,,0.00,Wunderground v.1.15,2014-12-17 07:50:00,
2014-12-17 03:00:00,59.1,52.6,30.19,North,4,2.0,2.0,79,0.00,,,0.00,Wunderground v.1.15,2014-12-17 08:00:00,
2014-12-17 03:05:00,59.0,52.5,30.19,North,4,1.0,2.0,79,0.00,,,0.00,Wunderground v.1.15,2014-12-17 08:05:00,
2014-12-17 03:15:00,58.7,52.2,30.19,North,5,1.0,1.0,79,0.00,,,0.00,Wunderground v.1.15,2014-12-17 08:15:00,
2014-12-17 03:20:00,58.5,52.0,30.18,North,5,1.0,1.0,79,0.00,,,0.00,Wunderground v.1.15,2014-12-17 08:20:00,
2014-12-17 03:25:00,58.4,51.9,30.19,North,5,1.0,1.0,79,0.00,,,0.00,Wunderground v.1.15,2014-12-17 08:25:00,
2014-12-17 03:30:00,58.2,51.7,30.19,NNE,24,0.0,1.0,79,0.00,,,0.00,Wunderground v.1.15,2014-12-17 08:30:00,
2014-12-17 03:35:00,58.2,51.7,30.18,North,5,1.0,2.0,79,0.00,,,0.00,Wunderground v.1.15,2014-12-17 08:35:00,
2014-12-17 03:40:00,58.2,51.7,30.18,North,5,1.0,4.0,79,0.00,,,0.00,Wunderground v.1.15,2014-12-17 08:40:00,
2014-12-17 03:45:00,58.2,51.7,30.18,NNW,345,1.0,4.0,79,0.00,,,0.00,Wunderground v.1.15,2014-12-17 08:45:00,
2014-12-17 03:50:00,58.0,51.2,30.18,North,354,1.0,4.0,78,0.00,,,0.00,Wunderground v.1.15,2014-12-17 08:50:00,
2014-12-17 03:55:00,58.0,51.2,30.18,North,4,1.0,4.0,78,0.00,,,0.00,Wunderground v.1.15,2014-12-17 08:55:00,
2014-12-17 04:05:00,58.0,51.2,30.18,North,8,1.0,4.0,78,0.00,,,0.00,Wunderground v.1.15,2014-12-17 09:05:00,
2014-12-17 04:15:00,57.9,51.1,30.18,North,8,1.0,1.0,78,0.00,,,0.00,Wunderground v.1.15,2014-12-17 09:15:00,
2014-12-17 04:20:00,57.8,51.0,30.19,North,8,1.0,2.0,78,0.00,,,0.00,Wunderground v.1.15,2014-12-17 09:20:00,
2014-12-17 04:25:00,57.8,50.6,30.18,North,9,1.0,2.0,77,0.00,,,0.00,Wunderground v.1.15,2014-12-17 09:25:00,
2014-12-17 04:30:00,57.7,50.5,30.18,North,8,1.0,1.0,77,0.00,,,0.00,Wunderground v.1.15,2014-12-17 09:30:00,
2014-12-17 04:35:00,57.7,50.5,30.19,North,4,2.0,2.0,77,0.00,,,0.00,Wunderground v.1.15,2014-12-17 09:35:00,
2014-12-17 04:40:00,57.7,50.5,30.19,North,11,2.0,3.0,77,0.00,,,0.00,Wunderground v.1.15,2014-12-17 09:40:00,
2014-12-17 04:45:00,57.7,50.5,30.19,North,9,2.0,3.0,77,0.00,,,0.00,Wunderground v.1.15,2014-12-17 09:45:00,
2014-12-17 04:55:00,57.6,50.1,30.19,NNE,27,1.0,3.0,76,0.00,,,0.00,Wunderground v.1.15,2014-12-17 09:55:00,
2014-12-17 05:00:00,57.6,50.1,30.19,NNE,22,1.0,1.0,76,0.00,,,0.00,Wunderground v.1.15,2014-12-17 10:00:00,
2014-12-17 05:05:00,57.7,50.2,30.19,NNE,15,1.0,1.0,76,0.00,,,0.00,Wunderground v.1.15,2014-12-17 10:05:00,
2014-12-17 05:15:00,57.5,50.0,30.19,NNE,13,0.0,1.0,76,0.00,,,0.00,Wunderground v.1.15,2014-12-17 10:15:00,
2014-12-17 05:20:00,57.4,49.9,30.19,North,8,0.0,0.0,76,0.00,,,0.00,Wunderground v.1.15,2014-12-17 10:20:00,
2014-12-17 05:25:00,57.2,49.3,30.19,North,352,1.0,1.0,75,0.00,,,0.00,Wunderground v.1.15,2014-12-17 10:25:00,
2014-12-17 05:30:00,57.1,48.9,30.19,North,11,1.0,1.0,74,0.00,,,0.00,Wunderground v.1.15,2014-12-17 10:30:00,
2014-12-17 05:35:00,57.2,49.0,30.19,North,1,1.0,2.0,74,0.00,,,0.00,Wunderground v.1.15,2014-12-17 10:35:00,
2014-12-17 05:45:00,57.4,49.2,30.19,North,8,2.0,3.0,74,0.00,,,0.00,Wunderground v.1.15,2014-12-17 10:45:00,
2014-12-17 05:50:00,57.4,49.2,30.19,North,357,2.0,2.0,74,0.00,,,0.00,Wunderground v.1.15,2014-12-17 10:50:00,
2014-12-17 05:55:00,57.4,49.5,30.19,North,4,1.0,3.0,75,0.00,,,0.00,Wunderground v.1.15,2014-12-17 10:55:00,
2014-12-17 06:00:00,57.3,49.4,30.20,North,5,1.0,1.0,75,0.00,,,0.00,Wunderground v.1.15,2014-12-17 11:00:00,
2014-12-17 06:05:00,57.2,49.3,30.20,North,5,0.0,1.0,75,0.00,,,0.00,Wunderground v.1.15,2014-12-17 11:05:00,
2014-12-17 06:15:00,57.0,48.8,30.20,North,5,0.0,0.0,74,0.00,,,0.00,Wunderground v.1.15,2014-12-17 11:15:00,
2014-12-17 06:20:00,57.0,48.8,30.21,North,5,0.0,0.0,74,0.00,,,0.00,Wunderground v.1.15,2014-12-17 11:20:00,
2014-12-17 06:25:00,56.9,48.7,30.20,North,4,0.0,0.0,74,0.00,,,0.00,Wunderground v.1.15,2014-12-17 11:25:00,
2014-12-17 06:30:00,56.7,48.5,30.21,North,5,0.0,0.0,74,0.00,,,0.00,Wunderground v.1.15,2014-12-17 11:30:00,
2014-12-17 06:35:00,56.6,48.4,30.21,North,4,0.0,3.0,74,0.00,,,0.00,Wunderground v.1.15,2014-12-17 11:35:00,
2014-12-17 06:40:00,56.7,48.1,30.21,North,4,0.0,3.0,73,0.00,,,0.00,Wunderground v.1.15,2014-12-17 11:40:00,
2014-12-17 06:50:00,56.5,48.3,30.22,North,6,0.0,3.0,74,0.00,,,0.00,Wunderground v.1.15,2014-12-17 11:50:00,
2014-12-17 06:55:00,56.1,48.3,30.22,North,6,0.0,3.0,75,0.00,,,0.00,Wunderground v.1.15,2014-12-17 11:55:00,
2014-12-17 07:00:00,55.9,47.7,30.22,North,6,0.0,3.0,74,0.00,,,0.00,Wunderground v.1.15,2014-12-17 12:00:00,
2014-12-17 07:05:00,55.9,47.4,30.22,North,6,0.0,3.0,73,0.00,,,0.00,Wunderground v.1.15,2014-12-17 12:05:00,
2014-12-17 07:15:00,55.6,46.7,30.22,North,6,0.0,0.0,72,0.00,,,0.00,Wunderground v.1.15,2014-12-17 12:15:00,
2014-12-17 07:20:00,55.3,46.4,30.22,North,6,0.0,0.0,72,0.00,,,0.00,Wunderground v.1.15,2014-12-17 12:20:00,
2014-12-17 07:25:00,55.5,45.5,30.22,North,6,0.0,0.0,69,0.00,,,0.00,Wunderground v.1.15,2014-12-17 12:25:00,
2014-12-17 07:30:00,56.3,44.7,30.22,North,6,0.0,0.0,65,0.00,,,0.00,Wunderground v.1.15,2014-12-17 12:30:00,
2014-12-17 07:35:00,57.0,44.9,30.22,North,6,0.0,0.0,64,0.00,,,0.00,Wunderground v.1.15,2014-12-17 12:35:00,
2014-12-17 07:40:00,57.2,46.7,30.22,North,6,0.0,0.0,68,0.00,,,0.00,Wunderground v.1.15,2014-12-17 12:40:00,
2014-12-17 07:45:00,57.4,47.3,30.22,North,6,0.0,0.0,69,0.00,,,0.00,Wunderground v.1.15,2014-12-17 12:45:00,
2014-12-17 07:55:00,58.2,49.2,30.22,North,6,0.0,1.0,72,0.00,,,0.00,Wunderground v.1.15,2014-12-17 12:55:00,
2014-12-17 08:00:00,58.7,50.4,30.22,North,6,0.0,0.0,74,0.00,,,0.00,Wunderground v.1.15,2014-12-17 13:00:00,
2014-12-17 08:05:00,59.3,51.7,30.22,North,6,0.0,1.0,76,0.00,,,0.00,Wunderground v.1.15,2014-12-17 13:05:00,
2014-12-17 08:15:00,60.4,53.5,30.23,North,11,1.0,1.0,78,0.00,,,0.00,Wunderground v.1.15,2014-12-17 13:15:00,
2014-12-17 08:25:00,61.5,54.9,30.23,NNE,14,2.0,2.0,79,0.00,,,0.00,Wunderground v.1.15,2014-12-17 13:25:00,
2014-12-17 08:30:00,62.1,55.5,30.23,NNE,33,2.0,2.0,79,0.00,,,0.00,Wunderground v.1.15,2014-12-17 13:30:00,
2014-12-17 08:35:00,62.8,56.2,30.23,NW,325,1.0,2.0,79,0.00,,,0.00,Wunderground v.1.15,2014-12-17 13:35:00,
2014-12-17 08:40:00,63.4,56.4,30.23,NNW,333,1.0,2.0,78,0.00,,,0.00,Wunderground v.1.15,2014-12-17 13:40:00,
2014-12-17 08:45:00,63.9,56.5,30.23,NNW,348,1.0,2.0,77,0.00,,,0.00,Wunderground v.1.15,2014-12-17 13:45:00,
2014-12-17 08:50:00,64.3,56.6,30.23,North,354,1.0,1.0,76,0.00,,,0.00,Wunderground v.1.15,2014-12-17 13:50:00,
2014-12-17 09:00:00,65.2,57.1,30.23,NNE,26,2.0,2.0,75,0.00,,,0.00,Wunderground v.1.15,2014-12-17 14:00:00,
2014-12-17 09:05:00,65.7,57.2,30.24,NNE,18,2.0,2.0,74,0.00,,,0.00,Wunderground v.1.15,2014-12-17 14:05:00,
2014-12-17 09:15:00,66.9,58.0,30.24,North,11,1.0,1.0,73,0.00,,,0.00,Wunderground v.1.15,2014-12-17 14:15:00,
2014-12-17 09:20:00,67.6,58.2,30.24,North,11,1.0,1.0,72,0.00,,,0.00,Wunderground v.1.15,2014-12-17 14:20:00,
2014-12-17 09:30:00,68.7,58.1,30.24,NNW,345,0.0,1.0,69,0.00,,,0.00,Wunderground v.1.15,2014-12-17 14:30:00,
2014-12-17 09:35:00,69.0,57.6,30.24,NW,311,1.0,4.0,67,0.00,,,0.00,Wunderground v.1.15,2014-12-17 14:35:00,
2014-12-17 09:40:00,69.6,56.9,30.24,NW,307,1.0,4.0,64,0.00,,,0.00,Wunderground v.1.15,2014-12-17 14:40:00,
2014-12-17 09:45:00,70.1,56.5,30.24,WNW,284,1.0,4.0,62,0.00,,,0.00,Wunderground v.1.15,2014-12-17 14:45:00,
2014-12-17 09:50:00,70.4,55.8,30.24,NW,322,2.0,2.0,60,0.00,,,0.00,Wunderground v.1.15,2014-12-17 14:50:00,
2014-12-17 09:55:00,70.8,56.2,30.24,NNW,332,2.0,4.0,60,0.00,,,0.00,Wunderground v.1.15,2014-12-17 14:55:00,
2014-12-17 10:05:00,71.6,57.0,30.24,West,266,1.0,2.0,60,0.00,,,0.00,Wunderground v.1.15,2014-12-17 15:05:00,
2014-12-17 10:15:00,72.4,57.3,30.25,WNW,295,1.0,2.0,59,0.00,,,0.00,Wunderground v.1.15,2014-12-17 15:15:00,
2014-12-17 10:20:00,72.6,56.5,30.25,WNW,300,2.0,3.0,57,0.00,,,0.00,Wunderground v.1.15,2014-12-17 15:20:00,
2014-12-17 10:25:00,72.8,57.2,30.25,North,351,2.0,3.0,58,0.00,,,0.00,Wunderground v.1.15,2014-12-17 15:25:00,
2014-12-17 10:35:00,73.5,57.3,30.25,NW,304,2.0,3.0,57,0.00,,,0.00,Wunderground v.1.15,2014-12-17 15:35:00,
2014-12-17 10:40:00,73.6,56.9,30.25,North,5,2.0,3.0,56,0.00,,,0.00,Wunderground v.1.15,2014-12-17 15:40:00,
2014-12-17 10:45:00,73.6,56.9,30.24,West,269,2.0,5.0,56,0.00,,,0.00,Wunderground v.1.15,2014-12-17 15:45:00,
2014-12-17 10:50:00,73.7,57.5,30.24,West,276,3.0,3.0,57,0.00,,,0.00,Wunderground v.1.15,2014-12-17 15:50:00,
2014-12-17 10:55:00,73.7,57.0,30.24,WNW,294,3.0,3.0,56,0.00,,,0.00,Wunderground v.1.15,2014-12-17 15:55:00,
2014-12-17 11:00:00,73.9,57.7,30.24,WNW,297,3.0,3.0,57,0.00,,,0.00,Wunderground v.1.15,2014-12-17 16:00:00,
2014-12-17 11:05:00,74.2,57.5,30.24,WNW,283,2.0,7.0,56,0.00,,,0.00,Wunderground v.1.15,2014-12-17 16:05:00,
2014-12-17 11:15:00,74.5,57.8,30.24,NW,311,3.0,3.0,56,0.00,,,0.00,Wunderground v.1.15,2014-12-17 16:15:00,
2014-12-17 11:20:00,74.4,57.2,30.23,North,360,3.0,3.0,55,0.00,,,0.00,Wunderground v.1.15,2014-12-17 16:20:00,
2014-12-17 11:25:00,74.7,58.0,30.23,West,271,3.0,3.0,56,0.00,,,0.00,Wunderground v.1.15,2014-12-17 16:25:00,
2014-12-17 11:30:00,75.3,57.5,30.22,NW,321,1.0,2.0,54,0.00,,,0.00,Wunderground v.1.15,2014-12-17 16:30:00,
2014-12-17 11:40:00,74.7,56.4,30.21,NW,304,3.0,3.0,53,0.00,,,0.00,Wunderground v.1.15,2014-12-17 16:40:00,
2014-12-17 11:45:00,74.9,56.1,30.21,WNW,300,3.0,6.0,52,0.00,,,0.00,Wunderground v.1.15,2014-12-17 16:45:00,
2014-12-17 11:50:00,75.2,56.4,30.20,WNW,288,2.0,6.0,52,0.00,,,0.00,Wunderground v.1.15,2014-12-17 16:50:00,
2014-12-17 11:55:00,75.4,56.0,30.20,ESE,122,2.0,6.0,51,0.00,,,0.00,Wunderground v.1.15,2014-12-17 16:55:00,
2014-12-17 12:00:00,76.0,55.5,30.20,West,267,1.0,6.0,49,0.00,,,0.00,Wunderground v.1.15,2014-12-17 17:00:00,
2014-12-17 12:05:00,76.2,55.1,30.20,NW,307,2.0,6.0,48,0.00,,,0.00,Wunderground v.1.15,2014-12-17 17:05:00,
2014-12-17 12:15:00,76.3,54.6,30.19,West,266,2.0,4.0,47,0.00,,,0.00,Wunderground v.1.15,2014-12-17 17:15:00,
2014-12-17 12:20:00,76.4,54.1,30.19,WSW,255,2.0,2.0,46,0.00,,,0.00,Wunderground v.1.15,2014-12-17 17:20:00,
2014-12-17 12:25:00,76.6,53.7,30.18,West,267,2.0,2.0,45,0.00,,,0.00,Wunderground v.1.15,2014-12-17 17:25:00,
2014-12-17 12:30:00,76.4,53.5,30.18,WNW,298,2.0,3.0,45,0.00,,,0.00,Wunderground v.1.15,2014-12-17 17:30:00,
2014-12-17 12:35:00,76.5,54.2,30.18,NNE,29,3.0,4.0,46,0.00,,,0.00,Wunderground v.1.15,2014-12-17 17:35:00,
2014-12-17 12:45:00,76.4,54.7,30.17,NW,307,3.0,7.0,47,0.00,,,0.00,Wunderground v.1.15,2014-12-17 17:45:00,
2014-12-17 12:50:00,76.3,54.6,30.17,WNW,302,3.0,7.0,47,0.00,,,0.00,Wunderground v.1.15,2014-12-17 17:50:00,
2014-12-17 12:55:00,76.5,54.2,30.17,NW,304,3.0,7.0,46,0.00,,,0.00,Wunderground v.1.15,2014-12-17 17:55:00,
2014-12-17 13:00:00,77.0,54.6,30.16,WNW,294,2.0,7.0,46,0.00,,,0.00,Wunderground v.1.15,2014-12-17 18:00:00,
2014-12-17 13:05:00,77.2,55.4,30.16,WNW,300,2.0,7.0,47,0.00,,,0.00,Wunderground v.1.15,2014-12-17 18:05:00,
2014-12-17 13:15:00,76.9,55.7,30.16,NNW,335,3.0,5.0,48,0.00,,,0.00,Wunderground v.1.15,2014-12-17 18:15:00,
2014-12-17 13:20:00,77.3,56.1,30.16,NW,321,4.0,4.0,48,0.00,,,0.00,Wunderground v.1.15,2014-12-17 18:20:00,
2014-12-17 13:25:00,77.4,56.2,30.16,NW,324,3.0,4.0,48,0.00,,,0.00,Wunderground v.1.15,2014-12-17 18:25:00,
2014-12-17 13:30:00,77.2,56.0,30.16,WNW,295,4.0,6.0,48,0.00,,,0.00,Wunderground v.1.15,2014-12-17 18:30:00,
2014-12-17 13:35:00,76.9,55.7,30.16,West,276,4.0,9.0,48,0.00,,,0.00,Wunderground v.1.15,2014-12-17 18:35:00,
2014-12-17 13:40:00,77.5,56.3,30.15,North,8,3.0,3.0,48,0.00,,,0.00,Wunderground v.1.15,2014-12-17 18:40:00,
2014-12-17 13:50:00,77.3,55.5,30.15,West,281,4.0,9.0,47,0.00,,,0.00,Wunderground v.1.15,2014-12-17 18:50:00,
2014-12-17 13:55:00,77.4,56.2,30.14,WNW,294,3.0,9.0,48,0.00,,,0.00,Wunderground v.1.15,2014-12-17 18:55:00,
2014-12-17 14:00:00,77.4,55.6,30.14,WNW,285,3.0,3.0,47,0.00,,,0.00,Wunderground v.1.15,2014-12-17 19:00:00,
2014-12-17 14:05:00,77.9,56.0,30.14,West,274,2.0,3.0,47,0.00,,,0.00,Wunderground v.1.15,2014-12-17 19:05:00,
2014-12-17 14:15:00,78.0,55.5,30.13,NNE,26,3.0,3.0,46,0.00,,,0.00,Wunderground v.1.15,2014-12-17 19:15:00,
2014-12-17 14:25:00,78.1,55.6,30.14,NNE,23,2.0,3.0,46,0.00,,,0.00,Wunderground v.1.15,2014-12-17 19:25:00,
2014-12-17 14:30:00,78.1,54.4,30.13,WNW,300,3.0,3.0,44,0.00,,,0.00,Wunderground v.1.15,2014-12-17 19:30:00,
2014-12-17 14:35:00,78.0,54.3,30.13,WSW,248,3.0,8.0,44,0.00,,,0.00,Wunderground v.1.15,2014-12-17 19:35:00,
2014-12-17 14:40:00,78.3,54.6,30.13,WNW,297,3.0,8.0,44,0.00,,,0.00,Wunderground v.1.15,2014-12-17 19:40:00,
2014-12-17 14:45:00,78.4,54.0,30.13,NNE,16,2.0,8.0,43,0.00,,,0.00,Wunderground v.1.15,2014-12-17 19:45:00,
2014-12-17 14:55:00,78.5,53.5,30.13,North,360,3.0,8.0,42,0.00,,,0.00,Wunderground v.1.15,2014-12-17 19:55:00,
2014-12-17 15:00:00,78.5,54.1,30.13,East,84,2.0,2.0,43,0.00,,,0.00,Wunderground v.1.15,2014-12-17 20:00:00,
2014-12-17 15:05:00,79.6,54.5,30.13,SW,217,1.0,2.0,42,0.00,,,0.00,Wunderground v.1.15,2014-12-17 20:05:00,
2014-12-17 15:15:00,79.4,54.3,30.13,West,266,1.0,2.0,42,0.00,,,0.00,Wunderground v.1.15,2014-12-17 20:15:00,
2014-12-17 15:20:00,79.5,54.4,30.13,North,6,1.0,1.0,42,0.00,,,0.00,Wunderground v.1.15,2014-12-17 20:20:00,
2014-12-17 15:30:00,79.2,54.8,30.13,SE,128,2.0,2.0,43,0.00,,,0.00,Wunderground v.1.15,2014-12-17 20:30:00,
2014-12-17 15:35:00,79.0,54.6,30.13,NW,326,2.0,7.0,43,0.00,,,0.00,Wunderground v.1.15,2014-12-17 20:35:00,
2014-12-17 15:40:00,78.9,54.5,30.13,North,350,2.0,7.0,43,0.00,,,0.00,Wunderground v.1.15,2014-12-17 20:40:00,
2014-12-17 15:45:00,78.7,54.3,30.13,NNE,19,2.0,7.0,43,0.00,,,0.00,Wunderground v.1.15,2014-12-17 20:45:00,
2014-12-17 15:50:00,79.1,54.7,30.12,NW,314,2.0,7.0,43,0.00,,,0.00,Wunderground v.1.15,2014-12-17 20:50:00,
2014-12-17 16:00:00,79.1,54.7,30.12,NNE,16,1.0,1.0,43,0.00,,,0.00,Wunderground v.1.15,2014-12-17 21:00:00,
2014-12-17 16:05:00,78.9,55.1,30.12,North,4,1.0,3.0,44,0.00,,,0.00,Wunderground v.1.15,2014-12-17 21:05:00,
2014-12-17 16:15:00,78.7,55.0,30.12,North,358,2.0,2.0,44,0.00,,,0.00,Wunderground v.1.15,2014-12-17 21:15:00,
2014-12-17 16:20:00,78.8,55.0,30.12,North,359,1.0,1.0,44,0.00,,,0.00,Wunderground v.1.15,2014-12-17 21:20:00,
2014-12-17 16:25:00,78.8,55.0,30.13,North,4,1.0,1.0,44,0.00,,,0.00,Wunderground v.1.15,2014-12-17 21:25:00,
2014-12-17 16:35:00,80.3,56.4,30.13,SSW,207,0.0,5.0,44,0.00,,,0.00,Wunderground v.1.15,2014-12-17 21:35:00,
2014-12-17 16:40:00,80.1,55.6,30.13,SE,132,1.0,5.0,43,0.00,,,0.00,Wunderground v.1.15,2014-12-17 21:40:00,
2014-12-17 16:45:00,78.8,58.0,30.13,SE,124,2.0,5.0,49,0.00,,,0.00,Wunderground v.1.15,2014-12-17 21:45:00,
2014-12-17 16:50:00,77.6,57.5,30.13,SE,137,2.0,5.0,50,0.00,,,0.00,Wunderground v.1.15,2014-12-17 21:50:00,
2014-12-17 16:55:00,77.0,57.5,30.13,SSW,193,2.0,5.0,51,0.00,,,0.00,Wunderground v.1.15,2014-12-17 21:55:00,